Burns Flat, Oklahoma
Current Conditions -  °F | °C
As of 8:43 AM on Thursday 23 Oct 2014 (Local Time) from KCSM Reporting Station
Light Rain Light Rain  
Wind Chill: 59°   Ceiling: 200
Heat Index: 59°   Visibility: 0.5mi
Dew Point: 57°   Wind: 8mph
Humidity: 93%   Direction: 190°S
Pressure: 30.12"   Gusts: NA
Location:  35.35°N, 99.17°W
Report Text: KCSM 231343Z AUTO 19007KT 1/2SM -RA FG BKN002 15/14 A3012 RMK AO2 P0000 T01500139
Loading
Personal Weather Stations






























Interactive Weather Map New forecast layout! Learn more

10-Day Weather Forecast

Advertisements
Track Severe Weather on mobile